Time;durP1;ratioP1;P1;durP2;ratioP2;P2;SDS_P1;SDS_P2;PMS_P1;PMS_P2;Temp;Humidity;BMP_temperature;BMP_pressure;BME280_temperature;BME280_humidity;BME280_pressure;Samples;Min_cycle;Max_cycle;Signal;HPM_P1;HPM_P2
2023/02/07 00:01:31;;;;;;;13.33;8.50;;;-0.20;99.90;;;;;;6269786;23;20430;-55
2023/02/07 00:04:00;;;;;;;16.87;8.13;;;-0.20;99.90;;;;;;6270022;23;20387;-55
2023/02/07 00:06:29;;;;;;;17.83;8.90;;;-0.20;99.90;;;;;;6269399;23;20449;-55
2023/02/07 00:08:58;;;;;;;18.67;9.03;;;-0.20;99.90;;;;;;6269020;23;20410;-52
2023/02/07 00:11:25;;;;;;;14.33;7.70;;;-0.30;99.90;;;;;;6269414;23;20403;-52
2023/02/07 00:13:54;;;;;;;13.53;8.10;;;-0.20;99.90;;;;;;6269137;23;20439;-52
2023/02/07 00:16:24;;;;;;;16.03;8.23;;;-0.30;99.90;;;;;;6269379;23;20395;-52
2023/02/07 00:18:51;;;;;;;21.30;10.53;;;-0.30;99.90;;;;;;6269944;23;20921;-55
2023/02/07 00:21:21;;;;;;;20.93;11.13;;;-0.30;99.90;;;;;;6269918;23;20471;-54
2023/02/07 00:23:48;;;;;;;25.20;11.40;;;-0.40;99.90;;;;;;6270116;23;20391;-57
2023/02/07 00:26:17;;;;;;;15.67;8.23;;;-0.40;99.90;;;;;;6269739;23;20387;-53
2023/02/07 00:28:44;;;;;;;15.60;9.80;;;-0.40;99.90;;;;;;6270398;23;20410;-54
2023/02/07 00:31:21;;;;;;;18.30;9.10;;;-0.50;99.90;;;;;;6269997;23;20414;-55
2023/02/07 00:33:49;;;;;;;16.67;9.53;;;-0.60;99.90;;;;;;6270104;23;20423;-57
2023/02/07 00:36:21;;;;;;;15.07;9.20;;;-0.60;99.90;;;;;;6270211;23;20395;-54
2023/02/07 00:38:48;;;;;;;13.80;8.30;;;-0.70;99.90;;;;;;6270621;23;20383;-50
2023/02/07 00:41:17;;;;;;;15.00;10.00;;;-0.70;99.90;;;;;;6270408;23;20399;-58
2023/02/07 00:43:45;;;;;;;13.47;7.63;;;-0.80;99.90;;;;;;6270317;23;20423;-57
2023/02/07 00:46:12;;;;;;;14.40;8.87;;;-0.80;99.90;;;;;;6270431;23;20387;-57
2023/02/07 00:48:41;;;;;;;14.90;7.33;;;-0.90;99.90;;;;;;6270496;23;20415;-57
2023/02/07 00:51:09;;;;;;;16.00;8.77;;;-0.90;99.90;;;;;;6270268;23;20388;-58
2023/02/07 00:53:38;;;;;;;14.60;7.67;;;-0.90;99.90;;;;;;6269982;23;20439;-57
2023/02/07 00:56:05;;;;;;;21.03;8.33;;;-0.90;99.90;;;;;;6270575;23;20455;-55
2023/02/07 00:58:32;;;;;;;15.87;7.50;;;-0.90;99.90;;;;;;6269923;23;20395;-53
2023/02/07 01:01:00;;;;;;;21.43;11.50;;;-1.00;99.90;;;;;;6270219;23;20415;-54
2023/02/07 01:03:28;;;;;;;19.07;7.80;;;-1.00;99.90;;;;;;6271082;23;20478;-51
2023/02/07 01:05:55;;;;;;;15.60;9.43;;;-1.00;99.90;;;;;;6271750;23;20427;-55
2023/02/07 01:08:22;;;;;;;10.57;6.63;;;-1.00;99.90;;;;;;6272526;23;20406;-53
2023/02/07 01:10:50;;;;;;;10.60;6.83;;;-1.00;99.90;;;;;;6271731;23;20399;-52
2023/02/07 01:13:17;;;;;;;19.77;8.80;;;-1.00;99.90;;;;;;6271881;23;20756;-54
2023/02/07 01:15:46;;;;;;;17.07;9.13;;;-1.00;99.90;;;;;;6271137;23;20383;-54
2023/02/07 01:18:13;;;;;;;18.53;9.10;;;-1.00;99.90;;;;;;6271967;23;20854;-53
2023/02/07 01:20:41;;;;;;;20.67;9.63;;;-1.00;99.90;;;;;;6272093;23;20410;-57
2023/02/07 01:23:08;;;;;;;13.73;8.50;;;-1.00;99.90;;;;;;6272083;23;20399;-58
2023/02/07 01:25:35;;;;;;;12.73;9.43;;;-1.00;99.90;;;;;;6271763;23;20426;-58
2023/02/07 01:28:03;;;;;;;13.87;7.50;;;-1.00;99.90;;;;;;6271912;23;20401;-58
2023/02/07 01:30:30;;;;;;;15.20;8.80;;;-1.00;99.90;;;;;;6272080;23;20399;-52
2023/02/07 01:32:57;;;;;;;12.20;8.87;;;-1.00;99.90;;;;;;6271438;23;20446;-56
2023/02/07 01:35:24;;;;;;;19.00;9.80;;;-1.10;99.90;;;;;;6271510;23;20422;-56
2023/02/07 01:37:51;;;;;;;16.33;9.17;;;-1.00;99.90;;;;;;6271748;23;20434;-54
2023/02/07 01:40:18;;;;;;;18.63;7.43;;;-1.10;99.90;;;;;;6272012;23;20399;-54
2023/02/07 01:42:45;;;;;;;16.97;9.33;;;-1.10;99.90;;;;;;6271153;23;20396;-53
2023/02/07 01:45:33;;;;;;;14.37;8.00;;;-1.10;99.90;;;;;;6271838;23;20407;-51
2023/02/07 01:48:03;;;;;;;17.43;9.00;;;-1.10;99.90;;;;;;6271037;23;20384;-53
2023/02/07 01:50:31;;;;;;;12.90;8.40;;;-1.10;99.90;;;;;;6271131;23;20418;-52
2023/02/07 01:53:00;;;;;;;17.37;8.70;;;-1.20;99.90;;;;;;6271561;23;20431;-53
2023/02/07 01:55:33;;;;;;;20.47;9.40;;;-1.20;99.90;;;;;;6271360;23;20403;-55
2023/02/07 01:58:02;;;;;;;19.77;8.07;;;-1.20;99.90;;;;;;6271763;23;20459;-54
2023/02/07 02:00:31;;;;;;;13.97;9.00;;;-1.20;99.90;;;;;;6271910;23;20414;-52
2023/02/07 02:02:58;;;;;;;20.57;9.60;;;-1.20;99.90;;;;;;6271813;23;20433;-50
2023/02/07 02:05:25;;;;;;;13.00;8.13;;;-1.20;99.90;;;;;;6272365;23;20387;-55
2023/02/07 02:07:52;;;;;;;17.43;10.60;;;-1.20;99.90;;;;;;6272720;23;20427;-55
2023/02/07 02:10:21;;;;;;;14.63;8.40;;;-1.20;99.90;;;;;;6272721;23;20399;-56
2023/02/07 02:12:59;;;;;;;15.00;8.40;;;-1.20;99.90;;;;;;6272558;23;20446;-55
2023/02/07 02:15:37;;;;;;;15.87;9.70;;;-1.20;99.90;;;;;;6271565;23;20422;-54
2023/02/07 02:18:31;;;;;;;19.57;9.77;;;-1.20;99.90;;;;;;6272339;23;20421;-59
2023/02/07 02:21:37;;;;;;;16.00;9.90;;;-1.20;99.90;;;;;;6272132;23;20415;-53
2023/02/07 02:24:39;;;;;;;15.17;9.80;;;-1.30;99.90;;;;;;6273565;23;20383;-53
2023/02/07 02:27:11;;;;;;;19.47;9.87;;;-1.30;99.90;;;;;;6273309;23;20457;-57
2023/02/07 02:30:07;;;;;;;15.63;10.77;;;-1.30;99.90;;;;;;6273535;23;20377;-55
2023/02/07 02:32:56;;;;;;;19.77;8.43;;;-1.30;99.90;;;;;;6272717;23;20435;-52
2023/02/07 02:35:31;;;;;;;20.73;9.60;;;-1.30;99.90;;;;;;6272625;23;20391;-58
2023/02/07 02:38:09;;;;;;;20.83;9.97;;;-1.30;99.90;;;;;;6272615;23;20394;-56
2023/02/07 02:40:46;;;;;;;12.87;8.13;;;-1.30;99.90;;;;;;6272525;23;20398;-53
2023/02/07 02:43:19;;;;;;;17.43;10.30;;;-1.30;99.90;;;;;;6272385;23;20391;-58
2023/02/07 02:45:58;;;;;;;17.00;9.30;;;-1.30;99.90;;;;;;6272365;23;20412;-56
2023/02/07 02:48:28;;;;;;;11.27;8.67;;;-1.30;99.90;;;;;;6272783;23;20387;-52
2023/02/07 02:50:58;;;;;;;19.83;9.63;;;-1.40;99.90;;;;;;6271960;23;20403;-57
2023/02/07 02:53:27;;;;;;;20.63;10.10;;;-1.40;99.90;;;;;;6272272;23;20419;-56
2023/02/07 02:56:19;;;;;;;18.43;11.00;;;-1.40;99.90;;;;;;6272283;23;20416;-55
2023/02/07 02:59:13;;;;;;;21.13;9.60;;;-1.40;99.90;;;;;;6272215;23;20407;-58
2023/02/07 03:01:48;;;;;;;14.97;8.20;;;-1.50;99.90;;;;;;6272005;23;20395;-58
2023/02/07 03:04:40;;;;;;;15.13;9.30;;;-1.60;99.90;;;;;;6272481;23;20390;-57
2023/02/07 03:07:21;;;;;;;16.73;9.50;;;-1.60;99.90;;;;;;6272214;23;20395;-55
2023/02/07 03:09:54;;;;;;;22.23;9.73;;;-1.60;99.90;;;;;;6272971;23;20490;-57
2023/02/07 03:12:27;;;;;;;12.73;8.67;;;-1.70;99.90;;;;;;6272039;23;20442;-57
2023/02/07 03:15:02;;;;;;;11.30;8.67;;;-1.70;99.90;;;;;;6272049;23;20446;-57
2023/02/07 03:17:33;;;;;;;15.57;9.83;;;-1.70;99.90;;;;;;6272301;23;20410;-56
2023/02/07 03:20:08;;;;;;;19.70;11.03;;;-1.70;99.90;;;;;;6272417;23;20387;-56
2023/02/07 03:22:35;;;;;;;38.17;10.13;;;-1.70;99.90;;;;;;6271972;23;20417;-55
2023/02/07 03:25:05;;;;;;;19.10;9.57;;;-1.70;99.90;;;;;;6271354;23;20395;-56
2023/02/07 03:27:40;;;;;;;14.23;10.73;;;-1.70;99.90;;;;;;6271354;23;20430;-53
2023/02/07 03:30:10;;;;;;;20.47;8.93;;;-1.70;99.90;;;;;;6271711;23;20409;-57
2023/02/07 03:32:40;;;;;;;13.93;9.60;;;-1.70;99.90;;;;;;6271505;23;20395;-57
2023/02/07 03:35:16;;;;;;;16.00;10.37;;;-1.70;99.90;;;;;;6271761;23;20376;-56
2023/02/07 03:37:47;;;;;;;19.83;10.73;;;-1.70;99.90;;;;;;6271909;23;20409;-56
2023/02/07 03:40:15;;;;;;;15.87;8.90;;;-1.70;99.90;;;;;;6271702;23;20465;-55
2023/02/07 03:42:52;;;;;;;26.83;10.50;;;-1.70;99.90;;;;;;6271998;23;20410;-54
2023/02/07 03:45:21;;;;;;;18.87;10.97;;;-1.80;99.90;;;;;;6271532;23;20431;-55
2023/02/07 03:47:48;;;;;;;25.37;9.73;;;-1.80;99.90;;;;;;6271671;23;20403;-52
2023/02/07 03:50:17;;;;;;;17.80;9.60;;;-1.80;99.90;;;;;;6271686;23;20383;-54
2023/02/07 03:52:50;;;;;;;15.10;8.93;;;-1.70;99.90;;;;;;6271815;23;20402;-58
2023/02/07 03:55:17;;;;;;;21.60;9.87;;;-1.80;99.90;;;;;;6271877;23;20383;-52
2023/02/07 03:57:44;;;;;;;15.23;9.43;;;-1.80;99.90;;;;;;6271265;23;20438;-52
2023/02/07 04:00:13;;;;;;;21.33;9.13;;;-1.80;99.90;;;;;;6271721;23;20387;-52
2023/02/07 04:02:40;;;;;;;17.63;10.03;;;-1.90;99.90;;;;;;6272130;23;20391;-53
2023/02/07 04:05:07;;;;;;;14.70;8.80;;;-1.90;99.90;;;;;;6272031;23;20399;-54
2023/02/07 04:07:36;;;;;;;19.77;11.87;;;-1.90;99.90;;;;;;6271693;23;20403;-53
2023/02/07 04:10:03;;;;;;;14.77;9.00;;;-1.90;99.90;;;;;;6271423;23;20423;-55
2023/02/07 04:12:31;;;;;;;15.50;10.57;;;-1.90;99.90;;;;;;6271688;23;20410;-55
2023/02/07 04:14:58;;;;;;;18.77;10.53;;;-1.90;99.90;;;;;;6271448;23;20454;-53
2023/02/07 04:17:25;;;;;;;17.70;9.70;;;-1.90;99.90;;;;;;6271587;23;20395;-53
2023/02/07 04:19:52;;;;;;;18.73;8.07;;;-2.00;99.90;;;;;;6271755;23;20399;-50
2023/02/07 04:22:19;;;;;;;26.60;10.30;;;-1.90;99.90;;;;;;6271387;23;20438;-50
2023/02/07 04:24:47;;;;;;;18.30;9.40;;;-1.90;99.90;;;;;;6271151;23;20399;-48
2023/02/07 04:27:19;;;;;;;18.77;10.17;;;-1.90;99.90;;;;;;6270814;23;20407;-50
2023/02/07 04:29:46;;;;;;;20.13;11.10;;;-1.80;99.90;;;;;;6271805;23;20395;-52
2023/02/07 04:32:13;;;;;;;28.00;12.87;;;-1.90;99.90;;;;;;6271825;23;20386;-55
2023/02/07 04:34:40;;;;;;;13.70;9.00;;;-1.80;99.90;;;;;;6271086;23;20447;-55
2023/02/07 04:37:09;;;;;;;20.97;10.60;;;-1.80;99.90;;;;;;6271940;23;20398;-56
2023/02/07 04:39:36;;;;;;;19.73;9.93;;;-1.80;99.90;;;;;;6273396;23;20399;-58
2023/02/07 04:42:06;;;;;;;18.47;10.50;;;-1.80;99.90;;;;;;6273730;23;20403;-55
2023/02/07 04:44:33;;;;;;;16.90;10.70;;;-1.80;99.90;;;;;;6273216;23;20410;-56
2023/02/07 04:47:00;;;;;;;23.03;12.70;;;-1.80;99.90;;;;;;6272830;23;20423;-53
2023/02/07 04:49:27;;;;;;;18.10;9.77;;;-1.80;99.90;;;;;;6272818;23;20390;-56
2023/02/07 04:51:54;;;;;;;19.87;13.63;;;-1.80;99.90;;;;;;6273377;23;20402;-54
2023/02/07 04:54:21;;;;;;;19.60;10.20;;;-1.90;99.90;;;;;;6273051;23;20407;-53
2023/02/07 04:56:47;;;;;;;23.87;12.07;;;-1.90;99.90;;;;;;6273427;23;20434;-54
2023/02/07 04:59:16;;;;;;;19.30;11.33;;;-1.90;99.90;;;;;;6273005;23;20403;-56
2023/02/07 05:01:43;;;;;;;16.50;9.50;;;-1.90;99.90;;;;;;6272906;23;20437;-53
2023/02/07 05:04:09;;;;;;;18.87;10.97;;;-2.00;99.90;;;;;;6273672;23;20429;-53
2023/02/07 05:06:36;;;;;;;23.63;12.07;;;-2.00;99.90;;;;;;6273380;23;20391;-53
2023/02/07 05:09:03;;;;;;;16.50;9.57;;;-2.10;99.90;;;;;;6273681;23;20387;-58
2023/02/07 05:11:34;;;;;;;22.40;11.17;;;-2.10;99.90;;;;;;6272917;23;20387;-58
2023/02/07 05:14:01;;;;;;;20.43;11.67;;;-2.10;99.90;;;;;;6272895;23;20411;-56
2023/02/07 05:16:30;;;;;;;15.47;10.87;;;-2.20;99.90;;;;;;6273154;23;20427;-57
2023/02/07 05:18:57;;;;;;;23.33;13.03;;;-2.20;99.90;;;;;;6273346;23;20491;-58
2023/02/07 05:21:24;;;;;;;17.03;13.00;;;-2.30;99.90;;;;;;6273581;23;20429;-53
2023/02/07 05:23:51;;;;;;;19.53;10.67;;;-2.30;99.90;;;;;;6273122;23;20395;-55
2023/02/07 05:26:18;;;;;;;16.60;12.43;;;-2.40;99.90;;;;;;6273415;23;20398;-58
2023/02/07 05:28:45;;;;;;;18.80;11.37;;;-2.30;99.90;;;;;;6272933;23;20423;-55
2023/02/07 05:31:12;;;;;;;25.13;12.60;;;-2.40;99.90;;;;;;6273692;23;20383;-56
2023/02/07 05:33:39;;;;;;;22.70;11.33;;;-2.30;99.90;;;;;;6273343;23;20461;-53
2023/02/07 05:36:07;;;;;;;19.07;11.23;;;-2.30;99.90;;;;;;6273104;23;20399;-56
2023/02/07 05:38:34;;;;;;;21.20;10.00;;;-2.30;99.90;;;;;;6273446;23;20414;-53
2023/02/07 05:41:01;;;;;;;20.30;11.23;;;-2.30;99.90;;;;;;6272680;23;20427;-58
2023/02/07 05:43:28;;;;;;;17.70;11.07;;;-2.30;99.90;;;;;;6272792;23;20430;-56
2023/02/07 05:45:54;;;;;;;19.00;9.33;;;-2.30;99.90;;;;;;6272555;23;20655;-50
2023/02/07 05:48:21;;;;;;;19.60;9.90;;;-2.30;99.90;;;;;;6272535;23;20485;-52
2023/02/07 05:50:50;;;;;;;17.23;10.33;;;-2.20;99.90;;;;;;6273545;23;20406;-52
2023/02/07 05:53:17;;;;;;;23.53;12.50;;;-2.30;99.90;;;;;;6273115;23;20406;-54
2023/02/07 05:55:44;;;;;;;22.03;9.97;;;-2.30;99.90;;;;;;6272849;23;20446;-56
2023/02/07 05:58:11;;;;;;;21.17;10.43;;;-2.40;99.90;;;;;;6272460;23;20402;-55
2023/02/07 06:00:37;;;;;;;17.63;10.77;;;-2.40;99.90;;;;;;6272734;23;20383;-52
2023/02/07 06:03:04;;;;;;;17.03;10.80;;;-2.40;99.90;;;;;;6272622;23;20395;-54
2023/02/07 06:05:32;;;;;;;21.83;12.80;;;-2.40;99.90;;;;;;6272367;23;20407;-53
2023/02/07 06:08:00;;;;;;;22.53;11.57;;;-2.50;99.90;;;;;;6273179;23;20429;-55
2023/02/07 06:10:27;;;;;;;20.30;10.63;;;-2.50;99.90;;;;;;6272633;23;20403;-54
2023/02/07 06:12:54;;;;;;;21.87;10.30;;;-2.60;99.90;;;;;;6272937;23;20461;-56
2023/02/07 06:15:23;;;;;;;31.13;13.07;;;-2.70;99.90;;;;;;6272865;23;20434;-51
2023/02/07 06:17:50;;;;;;;23.20;12.20;;;-2.70;99.90;;;;;;6272911;23;20426;-56
2023/02/07 06:20:17;;;;;;;18.33;12.10;;;-2.70;99.90;;;;;;6272937;23;20395;-53
2023/02/07 06:22:44;;;;;;;18.63;12.50;;;-2.70;99.90;;;;;;6272810;23;20410;-56
2023/02/07 06:25:12;;;;;;;20.80;12.13;;;-2.80;99.90;;;;;;6273197;23;20376;-56
2023/02/07 06:27:41;;;;;;;19.20;9.47;;;-2.80;99.90;;;;;;6272760;23;20399;-54
2023/02/07 06:30:10;;;;;;;19.93;10.90;;;-2.90;99.90;;;;;;6272744;23;20383;-57
2023/02/07 06:32:44;;;;;;;17.00;11.10;;;-2.80;99.90;;;;;;6272490;23;20391;-54
2023/02/07 06:35:11;;;;;;;17.53;9.20;;;-2.80;99.90;;;;;;6272633;23;20431;-53
2023/02/07 06:37:38;;;;;;;20.40;11.30;;;-2.80;99.90;;;;;;6273108;23;20402;-56
2023/02/07 06:40:06;;;;;;;21.20;10.40;;;-2.80;99.90;;;;;;6273221;23;20423;-59
2023/02/07 06:42:35;;;;;;;20.43;11.17;;;-2.80;99.90;;;;;;6273128;23;20419;-53
2023/02/07 06:45:02;;;;;;;23.80;12.77;;;-2.80;99.90;;;;;;6273458;23;20387;-55
2023/02/07 06:47:29;;;;;;;28.87;11.43;;;-2.80;99.90;;;;;;6272918;23;20406;-54
2023/02/07 06:49:58;;;;;;;17.30;12.60;;;-2.80;99.90;;;;;;6273249;23;20399;-53
2023/02/07 06:52:25;;;;;;;20.23;11.93;;;-2.80;99.90;;;;;;6272406;23;20427;-56
2023/02/07 06:54:52;;;;;;;17.47;11.07;;;-2.80;99.90;;;;;;6272494;23;20446;-53
2023/02/07 06:57:19;;;;;;;17.70;11.30;;;-2.80;99.90;;;;;;6273218;23;20423;-56
2023/02/07 06:59:47;;;;;;;14.43;10.87;;;-2.80;99.90;;;;;;6274551;23;20403;-56
2023/02/07 07:02:14;;;;;;;17.00;11.83;;;-2.70;99.90;;;;;;6273821;23;20450;-52
2023/02/07 07:04:41;;;;;;;13.23;9.40;;;-2.70;99.90;;;;;;6274019;23;20391;-54
2023/02/07 07:07:08;;;;;;;17.10;11.80;;;-2.70;99.90;;;;;;6273310;23;20430;-58
2023/02/07 07:09:35;;;;;;;18.50;10.80;;;-2.70;99.90;;;;;;6272940;23;20407;-55
2023/02/07 07:12:03;;;;;;;18.83;12.20;;;-2.70;99.90;;;;;;6272561;23;20415;-55
2023/02/07 07:14:31;;;;;;;18.13;13.30;;;-2.70;99.90;;;;;;6272215;23;20443;-55
2023/02/07 07:16:59;;;;;;;20.50;12.03;;;-2.60;99.90;;;;;;6272653;23;20401;-56
2023/02/07 07:19:26;;;;;;;24.73;9.77;;;-2.60;99.90;;;;;;6271747;23;20434;-55
2023/02/07 07:21:54;;;;;;;21.33;12.87;;;-2.60;99.90;;;;;;6272488;23;20411;-55
2023/02/07 07:24:22;;;;;;;22.27;13.23;;;-2.60;99.90;;;;;;6271644;23;20410;-56
2023/02/07 07:26:49;;;;;;;27.80;14.33;;;-2.70;99.90;;;;;;6271781;23;20388;-56
2023/02/07 07:29:19;;;;;;;19.60;12.80;;;-2.60;99.90;;;;;;6272229;23;20395;-56
2023/02/07 07:31:47;;;;;;;18.33;10.60;;;-2.60;99.90;;;;;;6271777;23;20371;-60
2023/02/07 07:34:15;;;;;;;23.13;10.77;;;-2.20;99.90;;;;;;6272082;23;20435;-56
2023/02/07 07:36:42;;;;;;;19.83;11.60;;;-2.50;99.90;;;;;;6272141;23;20431;-53
2023/02/07 07:39:12;;;;;;;20.50;12.03;;;-2.50;99.90;;;;;;6272519;23;20391;-58
2023/02/07 07:41:38;;;;;;;26.93;13.37;;;-2.40;99.90;;;;;;6271818;23;20997;-58
2023/02/07 07:44:06;;;;;;;20.87;13.47;;;-2.40;99.90;;;;;;6271833;23;20391;-57
2023/02/07 07:46:33;;;;;;;27.20;13.53;;;-2.40;99.90;;;;;;6271839;23;20378;-60
2023/02/07 07:49:02;;;;;;;28.23;14.60;;;-2.50;99.90;;;;;;6271994;23;20510;-52
2023/02/07 07:51:30;;;;;;;21.87;13.10;;;-2.40;99.90;;;;;;6271528;23;20383;-59
2023/02/07 07:54:00;;;;;;;24.00;14.13;;;-2.40;99.90;;;;;;6271505;23;20419;-56
2023/02/07 07:56:30;;;;;;;31.20;13.47;;;-2.30;99.90;;;;;;6271669;23;20394;-60
2023/02/07 07:58:57;;;;;;;20.50;12.70;;;-2.30;99.90;;;;;;6271739;23;20457;-50
2023/02/07 08:01:24;;;;;;;20.97;12.70;;;-2.30;99.90;;;;;;6272071;23;20408;-56
2023/02/07 08:03:53;;;;;;;27.53;13.77;;;-2.20;99.90;;;;;;6271599;23;20390;-57
2023/02/07 08:06:20;;;;;;;24.50;14.50;;;-2.20;99.90;;;;;;6271686;23;20420;-52
2023/02/07 08:08:49;;;;;;;25.17;14.47;;;-2.20;99.90;;;;;;6272039;23;20403;-58
2023/02/07 08:11:18;;;;;;;19.27;14.10;;;-2.20;99.90;;;;;;6271383;23;20426;-50
2023/02/07 08:13:45;;;;;;;30.80;14.60;;;-2.10;99.90;;;;;;6273588;23;20387;-55
2023/02/07 08:16:13;;;;;;;25.17;12.60;;;-2.10;99.90;;;;;;6273552;23;20438;-52
2023/02/07 08:18:40;;;;;;;25.07;14.30;;;-2.00;99.90;;;;;;6273902;23;20387;-50
2023/02/07 08:21:13;;;;;;;26.03;12.20;;;-1.90;99.90;;;;;;6274002;23;20390;-54
2023/02/07 08:23:40;;;;;;;19.70;10.60;;;-1.90;99.90;;;;;;6274232;23;20406;-57
2023/02/07 08:26:08;;;;;;;24.73;11.27;;;-1.80;99.90;;;;;;6274325;23;20389;-56
2023/02/07 08:28:35;;;;;;;21.37;12.23;;;-1.80;99.90;;;;;;6274613;23;20414;-55
2023/02/07 08:31:04;;;;;;;23.07;12.40;;;-1.80;99.90;;;;;;6274564;23;20390;-54
2023/02/07 08:33:31;;;;;;;22.87;12.90;;;-1.70;99.90;;;;;;6275193;23;20426;-56
2023/02/07 08:35:59;;;;;;;18.63;11.03;;;-1.70;99.90;;;;;;6274386;23;20470;-57
2023/02/07 08:38:26;;;;;;;22.07;11.93;;;-1.60;99.90;;;;;;6274614;23;20379;-60
2023/02/07 08:40:53;;;;;;;20.30;12.80;;;-1.60;99.90;;;;;;6274435;23;20403;-57
2023/02/07 08:43:21;;;;;;;30.00;15.03;;;-1.50;99.90;;;;;;6275024;23;20403;-51
2023/02/07 08:45:48;;;;;;;18.80;11.57;;;-1.40;99.90;;;;;;6274388;23;20484;-54
2023/02/07 08:48:15;;;;;;;27.07;14.43;;;-1.40;99.90;;;;;;6274767;23;20387;-53
2023/02/07 08:50:42;;;;;;;19.83;13.00;;;-1.30;99.90;;;;;;6275152;23;20430;-53
2023/02/07 08:53:09;;;;;;;32.90;12.87;;;-1.20;99.90;;;;;;6275326;23;20414;-53
2023/02/07 08:55:36;;;;;;;19.60;10.70;;;-1.20;99.90;;;;;;6274797;23;20502;-58
2023/02/07 08:58:03;;;;;;;21.00;11.17;;;-1.10;99.90;;;;;;6275453;23;20374;-55
2023/02/07 09:00:34;;;;;;;18.93;11.10;;;-1.00;99.90;;;;;;6274649;23;20418;-54
2023/02/07 09:03:03;;;;;;;18.83;10.60;;;-0.90;99.90;;;;;;6275255;22;20379;-53
2023/02/07 09:05:32;;;;;;;32.27;11.63;;;-0.80;99.90;;;;;;6274789;23;20383;-53
2023/02/07 09:07:59;;;;;;;17.93;12.57;;;-0.70;99.90;;;;;;6274766;23;20494;-54
2023/02/07 09:10:26;;;;;;;18.63;12.00;;;-0.60;99.90;;;;;;6274725;23;20395;-54
2023/02/07 09:12:53;;;;;;;22.50;11.70;;;-0.50;99.90;;;;;;6275028;23;20410;-59
2023/02/07 09:15:20;;;;;;;31.83;13.70;;;-0.50;99.90;;;;;;6274189;23;20435;-52
2023/02/07 09:17:48;;;;;;;27.30;12.87;;;-0.40;99.90;;;;;;6274998;23;20403;-52
2023/02/07 09:20:15;;;;;;;25.23;11.87;;;-0.40;99.90;;;;;;6274278;23;20434;-58
2023/02/07 09:25:25;;;;;;;20.77;13.20;;;-0.20;99.90;;;;;;6272465;22;20431;-57
2023/02/07 09:27:54;;;;;;;26.63;11.47;;;-0.10;99.90;;;;;;6274762;23;20418;-57
2023/02/07 09:30:21;;;;;;;21.73;11.60;;;0.00;99.90;;;;;;6274450;23;20419;-58
2023/02/07 09:32:50;;;;;;;12.77;8.83;;;0.00;99.90;;;;;;6274579;23;20399;-55
2023/02/07 09:35:17;;;;;;;16.37;10.87;;;0.10;99.90;;;;;;6273982;23;20431;-54
2023/02/07 09:37:44;;;;;;;15.07;10.60;;;0.30;99.90;;;;;;6274054;23;20387;-57
2023/02/07 09:40:17;;;;;;;21.60;11.80;;;0.40;99.90;;;;;;6274414;23;20399;-55
2023/02/07 09:42:55;;;;;;;23.50;12.33;;;0.50;99.90;;;;;;6273716;23;20368;-58
2023/02/07 09:45:25;;;;;;;21.97;12.63;;;0.80;99.90;;;;;;6274089;23;20394;-57
2023/02/07 09:48:00;;;;;;;17.57;10.20;;;1.00;99.90;;;;;;6274075;23;20410;-57
2023/02/07 09:50:33;;;;;;;21.80;10.33;;;1.20;99.90;;;;;;6273877;23;20391;-54
2023/02/07 09:53:11;;;;;;;21.83;12.53;;;1.40;99.90;;;;;;6273860;23;20418;-60
2023/02/07 09:55:44;;;;;;;23.23;12.33;;;2.00;99.90;;;;;;6273372;23;20438;-56
2023/02/07 09:58:17;;;;;;;15.33;9.93;;;3.30;99.90;;;;;;6273925;23;20423;-54
2023/02/07 10:00:52;;;;;;;16.67;10.47;;;4.70;99.90;;;;;;6272951;23;20384;-53
2023/02/07 10:03:23;;;;;;;31.57;12.03;;;6.30;99.90;;;;;;6273260;23;20413;-54
2023/02/07 10:05:57;;;;;;;20.23;11.33;;;7.80;99.90;;;;;;6273385;23;20370;-56
2023/02/07 10:08:25;;;;;;;20.23;11.97;;;8.80;99.90;;;;;;6272937;23;20471;-56
2023/02/07 10:11:13;;;;;;;19.63;11.40;;;9.50;96.80;;;;;;6272725;23;20419;-57
2023/02/07 10:14:01;;;;;;;21.33;13.20;;;10.20;92.30;;;;;;6272629;23;20384;-58
2023/02/07 10:16:45;;;;;;;23.23;12.93;;;10.60;86.30;;;;;;6272400;23;20430;-56
2023/02/07 10:19:24;;;;;;;21.63;11.93;;;10.80;80.60;;;;;;6272962;23;20367;-56
2023/02/07 10:22:01;;;;;;;18.00;11.20;;;11.10;77.40;;;;;;6272406;23;20395;-58
2023/02/07 10:24:54;;;;;;;20.10;11.97;;;11.20;73.60;;;;;;6272616;23;20367;-53
2023/02/07 10:27:29;;;;;;;21.30;12.57;;;11.10;71.20;;;;;;6272221;23;20437;-56
2023/02/07 10:30:04;;;;;;;25.40;12.80;;;11.40;72.40;;;;;;6272982;23;20463;-56
2023/02/07 10:32:35;;;;;;;20.43;11.60;;;11.40;68.80;;;;;;6272136;23;20426;-52
2023/02/07 10:35:14;;;;;;;19.33;11.73;;;11.30;68.30;;;;;;6267561;22;20403;-57
2023/02/07 10:37:45;;;;;;;20.30;12.23;;;11.30;67.90;;;;;;6257194;23;20726;-55
2023/02/07 10:40:16;;;;;;;21.00;12.37;;;11.40;68.50;;;;;;6257791;23;20402;-55
2023/02/07 10:42:48;;;;;;;18.63;11.70;;;11.40;67.80;;;;;;6257539;23;20423;-57
2023/02/07 10:45:15;;;;;;;18.33;10.87;;;11.30;66.80;;;;;;6257320;23;20427;-55
2023/02/07 10:47:42;;;;;;;21.00;12.07;;;11.20;65.60;;;;;;6257540;23;20411;-56
2023/02/07 10:50:15;;;;;;;16.97;10.40;;;10.90;67.40;;;;;;6258719;23;20444;-54
2023/02/07 10:52:45;;;;;;;16.57;11.17;;;10.80;68.00;;;;;;6257633;23;20418;-53
2023/02/07 10:55:15;;;;;;;18.90;9.90;;;10.60;69.10;;;;;;6259379;23;20439;-55
2023/02/07 10:57:53;;;;;;;21.63;11.33;;;10.60;69.70;;;;;;6259285;23;20476;-57
2023/02/07 11:00:24;;;;;;;22.60;11.40;;;10.50;67.40;;;;;;6256698;23;20431;-56
2023/02/07 11:02:53;;;;;;;18.20;9.87;;;10.10;70.00;;;;;;6255749;23;20424;-56
2023/02/07 11:05:31;;;;;;;18.33;10.00;;;9.70;69.50;;;;;;6257080;23;20423;-52
2023/02/07 11:08:00;;;;;;;14.50;9.60;;;9.30;71.00;;;;;;6259597;23;20411;-55
2023/02/07 11:10:32;;;;;;;14.17;8.93;;;9.20;72.00;;;;;;6257602;23;20441;-55
2023/02/07 11:13:01;;;;;;;15.47;9.77;;;9.20;74.80;;;;;;6258588;23;20398;-55
2023/02/07 11:15:36;;;;;;;20.73;10.43;;;9.20;74.60;;;;;;6257731;23;20439;-54
2023/02/07 11:18:04;;;;;;;15.40;9.53;;;9.00;74.70;;;;;;6257618;23;20383;-57
2023/02/07 11:20:38;;;;;;;15.80;9.53;;;8.80;76.70;;;;;;6258164;23;20403;-57
2023/02/07 11:23:11;;;;;;;13.57;8.50;;;8.60;78.30;;;;;;6254037;23;20434;-58
2023/02/07 11:25:41;;;;;;;19.07;9.60;;;8.10;75.50;;;;;;6252933;23;20537;-54
2023/02/07 11:28:18;;;;;;;13.00;7.60;;;7.60;76.10;;;;;;6252737;23;20485;-58
2023/02/07 11:30:46;;;;;;;17.97;9.20;;;6.70;79.10;;;;;;6253191;23;20383;-59
2023/02/07 11:33:19;;;;;;;14.07;8.20;;;6.30;81.40;;;;;;6254583;23;20684;-59
2023/02/07 11:38:48;;;;;;;17.93;7.27;;;5.70;85.00;;;;;;5140377;27;20586;-55
2023/02/07 11:41:19;;;;;;;12.40;6.57;;;4.90;94.20;;;;;;5142213;28;20452;-56
2023/02/07 11:43:55;;;;;;;17.10;8.63;;;4.60;95.80;;;;;;5141965;28;20474;-55
2023/02/07 11:46:24;;;;;;;12.57;8.17;;;4.50;99.20;;;;;;5141318;28;20439;-51
2023/02/07 11:48:56;;;;;;;13.90;8.33;;;4.30;99.90;;;;;;5136751;28;20538;-53
2023/02/07 11:51:23;;;;;;;14.90;9.37;;;4.20;99.90;;;;;;5154572;28;20467;-58
2023/02/07 11:53:55;;;;;;;15.30;8.33;;;4.00;99.90;;;;;;5151850;28;20488;-56
2023/02/07 11:56:25;;;;;;;12.50;7.13;;;3.90;99.90;;;;;;5152913;28;20456;-51
2023/02/07 11:58:53;;;;;;;15.47;5.93;;;3.80;99.90;;;;;;5153481;28;20440;-55
2023/02/07 12:01:27;;;;;;;13.13;7.07;;;3.80;99.90;;;;;;5153094;28;20463;-55
2023/02/07 12:03:59;;;;;;;12.47;7.30;;;3.70;99.90;;;;;;5153394;28;20442;-57
2023/02/07 12:06:33;;;;;;;17.23;8.10;;;3.70;99.90;;;;;;5153915;28;20424;-52
2023/02/07 12:09:03;;;;;;;11.60;8.00;;;3.50;99.90;;;;;;5154161;28;20424;-51
2023/02/07 12:11:39;;;;;;;15.73;8.33;;;3.50;99.90;;;;;;5153200;28;20443;-52
2023/02/07 12:14:13;;;;;;;17.07;8.70;;;3.50;99.90;;;;;;5152510;28;20493;-57
2023/02/07 12:16:47;;;;;;;11.17;6.43;;;3.50;99.90;;;;;;5152915;28;20419;-53
2023/02/07 12:19:19;;;;;;;17.53;8.40;;;3.50;99.90;;;;;;5152619;28;20471;-56
2023/02/07 12:21:54;;;;;;;9.83;6.60;;;3.50;99.90;;;;;;5152076;28;20436;-51
2023/02/07 12:24:26;;;;;;;13.80;7.70;;;3.40;99.90;;;;;;5152050;28;20503;-55
2023/02/07 12:26:59;;;;;;;20.00;7.37;;;3.50;99.90;;;;;;5152550;27;20531;-55
2023/02/07 12:29:38;;;;;;;12.17;7.57;;;3.50;99.90;;;;;;5152919;28;20466;-55
2023/02/07 12:32:15;;;;;;;11.60;6.77;;;3.60;99.90;;;;;;5152613;28;20455;-51
2023/02/07 12:34:48;;;;;;;8.90;5.30;;;3.60;99.90;;;;;;5152478;28;20451;-54
2023/02/07 12:37:32;;;;;;;9.87;5.53;;;3.70;99.90;;;;;;5152810;28;20467;-56
2023/02/07 12:40:12;;;;;;;10.23;5.87;;;3.70;99.90;;;;;;5153518;28;20438;-56
2023/02/07 12:42:42;;;;;;;13.37;6.20;;;3.80;99.90;;;;;;5153285;28;20419;-57
2023/02/07 12:45:15;;;;;;;7.87;4.60;;;3.80;99.90;;;;;;5153745;28;20500;-55
2023/02/07 12:47:49;;;;;;;7.30;3.93;;;3.80;99.20;;;;;;5153497;28;20475;-56
2023/02/07 12:50:26;;;;;;;5.00;2.63;;;3.80;95.80;;;;;;5139268;28;20452;-55
2023/02/07 12:53:04;;;;;;;5.07;3.20;;;3.80;92.80;;;;;;5127008;28;20452;-52
2023/02/07 12:55:45;;;;;;;4.93;3.30;;;3.80;90.70;;;;;;5120287;28;20454;-50